x

Halibut Bank (46146) Wave Buoy

9:00 - Fri 2nd Dec 2016 All times are PST. -8 hours from GMT.

  • Sig Wave height 0.7ft
  • Peak Period 4s
  • Wind
    2mph, 4mph gusts
  • Sea Temp 48°f
  • Luft Temp 47°f
  • Sea Pressure 1017.8mb
  • Halibut Bank
  • Halibut Bank

More Historic Weather Station data

Upgrade to MSW Pro to gain access to the past 30 days of data for over 8000 Wavebouys and Weather Stations around the globe.

Join Pro

Comparision Forecast

View Surf forecast
   
Fr 12/02 9:00 0.7ft 4s 2 4 mph 1017.8mb 48f 47f
8:00 1ft 5s 4 7 mph 1017.2mb 49f 48f
7:00 1.6ft 4s 7 9 mph 1016.3mb 49f 48f
6:00 2ft 4s 11 13 mph 1016.1mb 49f 48f
5:00 3ft 4s 11 18 mph 1015.8mb 49f 48f
4:00 3.5ft 4s 20 25 mph 1015.7mb 49f 48f
3:00 4ft 5s 18 22 mph 1016mb 49f 47f
2:00 4.5ft 5s 20 27 mph 1016.5mb 49f 47f
1:00 4.5ft 4s 29 36 mph 1015.6mb 49f 47f
12:00 4.5ft 5s 29 36 mph 1016.7mb 49f 47f
11:00 5ft 4s 29 36 mph 1017.7mb 49f 46f
10:00 4.5ft 4s 29 38 mph 1018.2mb 49f 46f
9:00 4.5ft 4s 29 36 mph 1019.5mb 48f 46f
8:00 4ft 4s 29 34 mph 1020.2mb 48f 46f
7:00 3.5ft 4s 27 34 mph 1020.9mb 48f 46f
6:00 3ft 4s 25 29 mph 1021.9mb 48f 45f
5:00 3ft 4s 25 31 mph 1022.4mb 48f 45f
4:00 2.5ft 4s 27 31 mph 1022.9mb 48f 45f
3:00 2.5ft 4s 25 27 mph 1023.6mb 48f 44f
2:00 2.5ft 4s 22 27 mph 1024.6mb 48f 44f
1:00 2.5ft 4s 22 27 mph 1025.1mb 48f 43f
12:00 2.5ft 4s 22 25 mph 1025.7mb 48f 43f
Do 12/01 11:00 2.5ft 4s 20 25 mph 1025.6mb 48f 43f
10:00 2.5ft 4s 20 27 mph 1025.4mb 48f 43f
9:00 2.5ft 4s 22 25 mph 1025.2mb 48f 43f
8:00 2ft 3s 20 25 mph 1025.6mb 48f 44f
7:00 1.6ft 3s 18 22 mph 1025.6mb 48f 44f
6:00 1.3ft 3s 18 22 mph 1025.7mb 48f 44f
5:00 1.3ft 3s 16 20 mph 1025.7mb 48f 44f
4:00 1ft 6s 16 18 mph 1025.6mb 48f 44f
3:00 1ft 3s 13 16 mph 1025.2mb 48f 44f
2:00 0.7ft 2s 13 16 mph 1025.1mb 48f 44f
1:00 0.7ft 6s 11 13 mph 1024.9mb 48f 44f
12:00 0.7ft 2s 9
mph
1025mb 48f 43f
11:00 0.7ft 3s 11
mph
1024.8mb 48f 43f
9:00 0.7ft 2s 4 7 mph 1023.6mb 48f 44f
8:00 0.7ft 2s 7
mph
1023.2mb 48f 42f
7:00 0.7ft 3s 7 9 mph 1022.8mb 47f 42f
6:00 1ft 3s 7 9 mph 1022.1mb 47f 43f
5:00 1.3ft 3s 9
mph
1021.7mb 48f 44f
4:00 1.3ft 3s 7 11 mph 1021.9mb 48f 44f
3:00 1.3ft 3s 9 11 mph 1021.7mb 48f 44f
2:00 1.6ft 3s 18 20 mph 1020.9mb 48f 46f
1:00 2ft 4s 16 18 mph 1020.4mb 48f 46f
12:00 1.6ft 4s 18 22 mph 1020mb 48f 47f
Mi 11/30 11:00 2.5ft 4s 18 20 mph 1019.5mb 48f 47f
10:00 2.5ft 4s 20 22 mph 1018.8mb 48f 47f
9:00 2.5ft 4s 20 25 mph 1018.1mb 48f 47f
8:00 2.5ft 4s 20 25 mph 1017.4mb 48f 47f
7:00 2.5ft 4s 22 27 mph 1016.7mb 48f 47f
6:00 3ft 4s 22 29 mph 1016mb 48f 48f
5:00 3.5ft 4s 22 27 mph 1015.3mb 48f 48f
4:00 3.5ft 4s 25 29 mph 1014.5mb 48f 48f
3:00 3.5ft 5s 27 31 mph 1013.8mb 48f 48f
2:00 2.5ft 5s 22 29 mph 1013.3mb 48f 47f
1:00 2.5ft 4s 22 29 mph 1012.8mb 48f 47f
12:00 2.5ft 4s 20 25 mph 1012.6mb 48f 46f
11:00 2ft 5s 22 27 mph 1011.5mb 48f 46f
10:00 2.5ft 4s 16 20 mph 1010.3mb 49f 46f
9:00 3.5ft 4s 18 20 mph 1008.9mb 49f 45f
8:00 4ft 5s 22 27 mph 1007.5mb 49f 46f
7:00 4.5ft 5s 27 34 mph 1006.5mb 49f 46f
6:00 4.5ft 5s 27 34 mph 1006.5mb 49f 46f
5:00 5ft 5s 31 36 mph 1006.4mb 49f 47f
4:00 5ft 4s 31 36 mph 1006.6mb 48f 46f
3:00  -   -  34
mph
- - -
2:00 4ft 4s 27 34 mph 1007.5mb 49f 47f
1:00 3.5ft 4s 29 36 mph 1007.7mb 49f 48f
12:00 3ft 4s 25 29 mph 1008.1mb 49f 48f
Di 11/29 11:00 2.5ft 4s 25 29 mph 1009mb 49f 49f
10:00 2.5ft 4s 20 25 mph 1010.3mb 49f 49f
9:00 2.5ft 4s 22 27 mph 1010.3mb 49f 48f
8:00 2.5ft 4s 22 27 mph 1011mb 48f 48f
7:00 2ft 4s 22 25 mph 1012.3mb 48f 47f
6:00 2ft 4s 20 25 mph 1013.6mb 48f 47f
5:00 2ft 3s 18 20 mph 1015.3mb 48f 46f
4:00 2ft 3s 18 20 mph 1016.2mb 48f 46f
3:00 1.6ft 3s 20 22 mph 1017.2mb 48f 45f
2:00 1.6ft 3s 20 22 mph 1018.3mb 48f 45f
1:00 1.6ft 3s 18 20 mph 1019.4mb 48f 45f
12:00 1.3ft 3s 20 22 mph 1020mb 48f 44f
11:00 1ft 3s 13 16 mph 1021.5mb 48f 46f
10:00 1ft 3s 13 16 mph 1021.4mb 48f 46f
9:00 1ft 3s 13 16 mph 1021.3mb 48f 45f
8:00 1.3ft 3s 13 16 mph 1021.2mb 48f 45f
7:00 1ft 3s 16 18 mph 1020.9mb 48f 45f